sensor_id;sensor_type;location;lat;lon;timestamp;pressure;altitude;pressure_sealevel;temperature;humidity
7586;BME280;12459;42.646;23.292;2023-03-15T00:01:45;92772.44;;;6.25;73.82
7586;BME280;12459;42.646;23.292;2023-03-15T00:16:47;92759.41;;;6.38;74.04
7586;BME280;12459;42.646;23.292;2023-03-15T00:31:49;92600.66;;;5.56;75.61
7586;BME280;12459;42.646;23.292;2023-03-15T00:46:52;92592.25;;;5.61;72.65
7586;BME280;12459;42.646;23.292;2023-03-15T01:01:54;92670.19;;;6.60;72.01
7586;BME280;12459;42.646;23.292;2023-03-15T01:16:55;92505.72;;;5.60;72.03
7586;BME280;12459;42.646;23.292;2023-03-15T01:31:57;92590.13;;;6.17;75.04
7586;BME280;12459;42.646;23.292;2023-03-15T01:46:59;92603.63;;;6.33;74.49
7586;BME280;12459;42.646;23.292;2023-03-15T02:02:02;92480.91;;;5.40;75.65
7586;BME280;12459;42.646;23.292;2023-03-15T02:17:05;92488.00;;;5.50;76.11
7586;BME280;12459;42.646;23.292;2023-03-15T02:32:07;92467.63;;;5.40;77.69
7586;BME280;12459;42.646;23.292;2023-03-15T02:47:13;92486.44;;;5.53;82.57
7586;BME280;12459;42.646;23.292;2023-03-15T03:02:16;92575.72;;;6.15;77.73
7586;BME280;12459;42.646;23.292;2023-03-15T03:17:18;92456.22;;;5.05;80.60
7586;BME280;12459;42.646;23.292;2023-03-15T03:32:20;92550.16;;;5.94;83.67
7586;BME280;12459;42.646;23.292;2023-03-15T03:47:22;92408.34;;;5.12;85.51
7586;BME280;12459;42.646;23.292;2023-03-15T04:02:24;92335.06;;;4.88;81.87
7586;BME280;12459;42.646;23.292;2023-03-15T04:17:26;92409.34;;;5.26;86.13
7586;BME280;12459;42.646;23.292;2023-03-15T04:32:27;92564.06;;;6.05;84.59
7586;BME280;12459;42.646;23.292;2023-03-15T04:47:29;92449.44;;;5.69;85.33
7586;BME280;12459;42.646;23.292;2023-03-15T05:02:31;92297.69;;;4.41;86.43
7586;BME280;12459;42.646;23.292;2023-03-15T05:17:33;92297.47;;;4.63;86.20
7586;BME280;12459;42.646;23.292;2023-03-15T05:32:35;92495.59;;;6.39;86.95
7586;BME280;12459;42.646;23.292;2023-03-15T06:08:52;92447.13;;;6.28;82.89
7586;BME280;12459;42.646;23.292;2023-03-15T06:23:53;92244.78;;;5.19;77.22
7586;BME280;12459;42.646;23.292;2023-03-15T06:38:55;92497.41;;;7.59;75.01
7586;BME280;12459;42.646;23.292;2023-03-15T06:53:57;92360.59;;;6.87;71.51
7586;BME280;12459;42.646;23.292;2023-03-15T07:09:01;92433.38;;;7.79;67.66
7586;BME280;12459;42.646;23.292;2023-03-15T07:24:03;92402.03;;;8.19;65.56
7586;BME280;12459;42.646;23.292;2023-03-15T07:39:05;92414.38;;;8.78;63.23
7586;BME280;12459;42.646;23.292;2023-03-15T07:54:07;92294.22;;;8.49;62.33
7586;BME280;12459;42.646;23.292;2023-03-15T08:09:09;92296.13;;;8.32;59.63
7586;BME280;12459;42.646;23.292;2023-03-15T08:24:12;92453.81;;;9.90;59.32
7586;BME280;12459;42.646;23.292;2023-03-15T08:39:14;92459.00;;;10.22;59.56
7586;BME280;12459;42.646;23.292;2023-03-15T08:54:16;92266.44;;;8.88;57.48
7586;BME280;12459;42.646;23.292;2023-03-15T09:09:18;92287.31;;;8.93;56.88
7586;BME280;12459;42.646;23.292;2023-03-15T09:24:20;92292.91;;;9.24;58.14
7586;BME280;12459;42.646;23.292;2023-03-15T09:39:21;92036.31;;;7.85;57.57
7586;BME280;12459;42.646;23.292;2023-03-15T09:54:27;92228.69;;;9.53;57.50
7586;BME280;12459;42.646;23.292;2023-03-15T10:09:32;92418.53;;;10.59;57.15
7586;BME280;12459;42.646;23.292;2023-03-15T10:24:43;92341.63;;;10.46;56.61
7586;BME280;12459;42.646;23.292;2023-03-15T10:39:47;92391.69;;;10.84;57.25
7586;BME280;12459;42.646;23.292;2023-03-15T10:54:50;92370.97;;;10.50;57.38
7586;BME280;12459;42.646;23.292;2023-03-15T11:10:05;92340.88;;;10.46;57.24
7586;BME280;12459;42.646;23.292;2023-03-15T11:25:15;92226.75;;;9.67;58.77
7586;BME280;12459;42.646;23.292;2023-03-15T11:40:29;92282.66;;;9.99;65.09
7586;BME280;12459;42.646;23.292;2023-03-15T11:55:34;92336.25;;;10.59;67.70
7586;BME280;12459;42.646;23.292;2023-03-15T12:10:42;92281.22;;;10.33;69.15
7586;BME280;12459;42.646;23.292;2023-03-15T12:25:54;92348.25;;;10.89;69.36
7586;BME280;12459;42.646;23.292;2023-03-15T12:40:57;92191.81;;;9.96;70.07
7586;BME280;12459;42.646;23.292;2023-03-15T12:56:29;92308.09;;;10.76;68.52
7586;BME280;12459;42.646;23.292;2023-03-15T13:27:04;92322.09;;;11.15;65.20
7586;BME280;12459;42.646;23.292;2023-03-15T13:42:19;92328.06;;;11.19;63.58
7586;BME280;12459;42.646;23.292;2023-03-15T17:24:11;92406.03;;;9.50;94.19
7586;BME280;12459;42.646;23.292;2023-03-15T17:39:15;92327.66;;;8.54;96.85
7586;BME280;12459;42.646;23.292;2023-03-15T17:54:18;92487.47;;;9.62;95.59
7586;BME280;12459;42.646;23.292;2023-03-15T18:09:20;92495.78;;;9.51;98.83
7586;BME280;12459;42.646;23.292;2023-03-15T18:24:24;92447.13;;;9.11;99.63
7586;BME280;12459;42.646;23.292;2023-03-15T18:39:26;92259.13;;;7.37;100.00
7586;BME280;12459;42.646;23.292;2023-03-15T18:54:27;92285.66;;;7.24;100.00
7586;BME280;12459;42.646;23.292;2023-03-15T19:09:29;92399.59;;;8.09;100.00
7586;BME280;12459;42.646;23.292;2023-03-15T19:24:31;92465.91;;;8.26;100.00
7586;BME280;12459;42.646;23.292;2023-03-15T19:39:33;92588.91;;;8.72;100.00
7586;BME280;12459;42.646;23.292;2023-03-15T19:54:35;92407.88;;;7.42;100.00
7586;BME280;12459;42.646;23.292;2023-03-15T20:09:38;92599.81;;;8.61;100.00
7586;BME280;12459;42.646;23.292;2023-03-15T20:24:41;92295.09;;;6.30;100.00
7586;BME280;12459;42.646;23.292;2023-03-15T20:39:44;92497.25;;;7.47;100.00
7586;BME280;12459;42.646;23.292;2023-03-15T20:54:47;92651.19;;;8.49;100.00
7586;BME280;12459;42.646;23.292;2023-03-15T21:09:49;92411.47;;;6.22;100.00
7586;BME280;12459;42.646;23.292;2023-03-15T21:24:50;92335.69;;;4.99;100.00
7586;BME280;12459;42.646;23.292;2023-03-15T21:39:56;92438.25;;;5.20;100.00
7586;BME280;12459;42.646;23.292;2023-03-15T21:54:58;92419.78;;;4.72;100.00
7586;BME280;12459;42.646;23.292;2023-03-15T22:10:00;92706.47;;;6.09;100.00
7586;BME280;12459;42.646;23.292;2023-03-15T22:25:02;92685.63;;;5.63;100.00
7586;BME280;12459;42.646;23.292;2023-03-15T22:40:04;92756.03;;;5.86;100.00
7586;BME280;12459;42.646;23.292;2023-03-15T22:55:07;92839.03;;;6.11;100.00
7586;BME280;12459;42.646;23.292;2023-03-15T23:10:10;92820.69;;;5.75;100.00
7586;BME280;12459;42.646;23.292;2023-03-15T23:25:14;92835.13;;;5.74;100.00
7586;BME280;12459;42.646;23.292;2023-03-15T23:40:16;92719.34;;;4.41;100.00
7586;BME280;12459;42.646;23.292;2023-03-15T23:55:20;92862.72;;;5.18;100.00
